Concepcion, Concepcion Carriel Sur International Airport (SCIE)

NameConcepcion Carriel Sur International Airport
CityConcepcion
CountryChile
ICAOSCIE
IATACCP
Altitude8 m
CoordinatesGoogle Map
Live Air TrafficLiveATC.net
METARSCIE 140100Z 22006KT CAVOK 17/13 Q1018
2019-11-14 01:00:00 Wind: South-Southwest (220°) 3.09 m/s - Visibility: > 10000 m - Weather: CAVOK - Temperature: 17 °C - Dew point: 13 °C - Humidity: 77.5% - Pressure: 1018 hPa

Sorry, no flights used the airport in this database.